Time;durP1;ratioP1;P1;durP2;ratioP2;P2;SDS_P1;SDS_P2;PMS_P1;PMS_P2;Temp;Humidity;BMP_temperature;BMP_pressure;BME280_temperature;BME280_humidity;BME280_pressure;Samples;Min_cycle;Max_cycle;Signal;HPM_P1;HPM_P2
2023/02/18 00:01:31;;;;;;;;;;;;;;;7.01;70.10;99545.08;107307;1257;65876;-81
2023/02/18 00:04:00;;;;;;;;;;;;;;;6.98;70.23;99542.58;107226;1257;124520;-81
2023/02/18 00:06:35;;;;;;;;;;;;;;;6.95;70.37;99533.10;107431;1256;61315;-81
2023/02/18 00:09:03;;;;;;;;;;;;;;;6.94;70.48;99553.13;107574;1262;61131;-82
2023/02/18 00:11:30;;;;;;;;;;;;;;;6.90;70.50;99557.25;107626;1260;124326;-82
2023/02/18 00:14:01;;;;;;;;;;;;;;;6.86;70.57;99556.09;107598;1263;65920;-82
2023/02/18 00:16:29;;;;;;;;;;;;;;;6.84;70.78;99566.00;107517;1260;123805;-82
2023/02/18 00:18:57;;;;;;;;;;;;;;;6.81;70.80;99559.50;107495;1259;61238;-81
2023/02/18 00:21:24;;;;;;;;;;;;;;;6.79;70.70;99555.61;107683;1259;61245;-82
2023/02/18 00:23:52;;;;;;;;;;;;;;;6.78;70.70;99557.87;106972;1264;124618;-85
2023/02/18 00:26:21;;;;;;;;;;;;;;;6.79;70.19;99560.84;107269;1262;67673;-82
2023/02/18 00:28:48;;;;;;;;;;;;;;;6.83;70.04;99566.67;107081;1260;124900;-85
2023/02/18 00:31:18;;;;;;;;;;;;;;;6.86;70.21;99566.73;107251;1260;59745;-84
2023/02/18 00:33:46;;;;;;;;;;;;;;;6.87;70.10;99563.63;106999;1263;60213;-84
2023/02/18 00:36:15;;;;;;;;;;;;;;;6.89;70.00;99567.49;107034;1257;124138;-84
2023/02/18 00:38:48;;;;;;;;;;;;;;;6.90;69.85;99575.02;107372;1263;67359;-83
2023/02/18 00:41:16;;;;;;;;;;;;;;;6.92;69.43;99579.24;107399;1262;123764;-83
2023/02/18 00:43:43;;;;;;;;;;;;;;;6.94;69.29;99578.59;107280;1265;61222;-83
2023/02/18 00:46:10;;;;;;;;;;;;;;;6.95;69.35;99577.92;108674;1259;123757;-82
2023/02/18 00:48:38;;;;;;;;;;;;;;;6.94;69.44;99563.94;107347;1257;72092;-83
2023/02/18 00:51:06;;;;;;;;;;;;;;;6.93;69.47;99587.80;107126;1258;66983;-83
2023/02/18 00:53:33;;;;;;;;;;;;;;;6.90;69.60;99603.98;107284;1257;123584;-83
2023/02/18 00:56:00;;;;;;;;;;;;;;;6.86;69.69;99597.27;107417;1259;61246;-83
2023/02/18 00:58:27;;;;;;;;;;;;;;;6.83;69.54;99607.30;108332;1260;124652;-83
2023/02/18 01:00:55;;;;;;;;;;;;;;;6.80;69.63;99600.80;107351;1257;74372;-83
2023/02/18 01:03:22;;;;;;;;;;;;;;;6.79;69.66;99614.89;107366;1266;67645;-84
2023/02/18 01:05:50;;;;;;;;;;;;;;;6.76;69.65;99616.76;107332;1257;124698;-83
2023/02/18 01:08:17;;;;;;;;;;;;;;;6.73;69.86;99619.65;107283;1262;61262;-83
2023/02/18 01:10:46;;;;;;;;;;;;;;;6.69;69.98;99612.23;106938;1257;123805;-83
2023/02/18 01:13:22;;;;;;;;;;;;;;;6.66;70.09;99622.27;107066;1263;74402;-83
2023/02/18 01:15:50;;;;;;;;;;;;;;;6.66;69.94;99622.80;107430;1257;123873;-82
2023/02/18 01:18:17;;;;;;;;;;;;;;;6.67;69.93;99620.02;107333;1263;71780;-83
2023/02/18 01:20:44;;;;;;;;;;;;;;;6.67;69.80;99630.31;107368;1267;61187;-83
2023/02/18 01:23:21;;;;;;;;;;;;;;;6.67;69.85;99621.59;107281;1262;124865;-83
2023/02/18 01:25:55;;;;;;;;;;;;;;;6.66;69.68;99631.17;107369;1257;74630;-84
2023/02/18 01:28:24;;;;;;;;;;;;;;;6.67;69.70;99616.73;107281;1261;124170;-83
2023/02/18 01:30:57;;;;;;;;;;;;;;;6.68;69.62;99626.33;107510;1260;72400;-84
2023/02/18 01:33:24;;;;;;;;;;;;;;;6.69;69.49;99641.52;107567;1258;61285;-83
2023/02/18 01:35:58;;;;;;;;;;;;;;;6.71;69.33;99639.83;107066;1257;124061;-83
2023/02/18 01:38:25;;;;;;;;;;;;;;;6.70;69.20;99634.06;107180;1258;74977;-83
2023/02/18 01:41:00;;;;;;;;;;;;;;;6.71;69.14;99638.60;106902;1257;123775;-84
2023/02/18 01:43:29;;;;;;;;;;;;;;;6.70;69.13;99634.77;107074;1262;71163;-84
2023/02/18 01:46:21;;;;;;;;;;;;;;;6.70;68.92;99634.77;107127;1262;123868;-83
2023/02/18 01:48:50;;;;;;;;;;;;;;;6.71;68.82;99641.22;107264;1262;59446;-84
2023/02/18 01:51:34;;;;;;;;;;;;;;;6.71;68.49;99634.61;107150;1256;74409;-83
2023/02/18 01:54:03;;;;;;;;;;;;;;;6.71;68.49;99633.38;107076;1257;124341;-85
2023/02/18 01:56:38;;;;;;;;;;;;;;;6.72;68.34;99637.08;107416;1262;73143;-84
2023/02/18 01:59:12;;;;;;;;;;;;;;;6.72;68.36;99631.48;107249;1260;124075;-85
2023/02/18 02:01:40;;;;;;;;;;;;;;;6.72;68.13;99636.18;107086;1259;61185;-85
2023/02/18 02:04:07;;;;;;;;;;;;;;;6.71;67.90;99636.86;107066;1257;124026;-84
2023/02/18 02:06:34;;;;;;;;;;;;;;;6.72;67.51;99643.33;107446;1262;66427;-81
2023/02/18 02:09:02;;;;;;;;;;;;;;;6.73;67.68;99644.41;107461;1260;72727;-81
2023/02/18 02:11:30;;;;;;;;;;;;;;;6.74;67.73;99644.60;107296;1257;123846;-81
2023/02/18 02:13:57;;;;;;;;;;;;;;;6.72;67.71;99647.88;107340;1257;61199;-81
2023/02/18 02:16:36;;;;;;;;;;;;;;;6.71;67.77;99645.23;107472;1257;124512;-82
2023/02/18 02:19:13;;;;;;;;;;;;;;;6.70;67.55;99656.54;107373;1257;65427;-80
2023/02/18 02:22:03;;;;;;;;;;;;;;;6.69;67.57;99654.06;107456;1261;73415;-80
2023/02/18 02:24:30;;;;;;;;;;;;;;;6.69;67.20;99654.25;107488;1256;61275;-80
2023/02/18 02:26:58;;;;;;;;;;;;;;;6.69;67.25;99659.31;108018;1258;59634;-80
2023/02/18 02:29:37;;;;;;;;;;;;;;;6.69;67.23;99660.52;108783;1257;124508;-80
2023/02/18 02:32:23;;;;;;;;;;;;;;;6.69;67.18;99662.98;108927;1256;67130;-80
2023/02/18 02:34:50;;;;;;;;;;;;;;;6.68;67.11;99659.13;108906;1257;123610;-80
2023/02/18 02:37:24;;;;;;;;;;;;;;;6.68;66.99;99666.77;108993;1256;58987;-81
2023/02/18 02:39:57;;;;;;;;;;;;;;;6.68;66.63;99660.17;109046;1257;60470;-81
2023/02/18 02:42:45;;;;;;;;;;;;;;;6.68;66.66;99657.02;108956;1257;72088;-80
2023/02/18 02:45:17;;;;;;;;;;;;;;;6.68;66.77;99669.04;108916;1257;66813;-80
2023/02/18 02:47:48;;;;;;;;;;;;;;;6.67;66.74;99662.73;108854;1258;123731;-80
2023/02/18 02:50:17;;;;;;;;;;;;;;;6.65;66.63;99656.95;108830;1257;59909;-80
2023/02/18 02:52:44;;;;;;;;;;;;;;;6.66;66.70;99675.61;108779;1257;123964;-81
2023/02/18 02:55:12;;;;;;;;;;;;;;;6.66;66.60;99668.64;108362;1262;74803;-80
2023/02/18 02:57:43;;;;;;;;;;;;;;;6.65;66.54;99675.94;107664;1257;66807;-80
2023/02/18 03:00:12;;;;;;;;;;;;;;;6.64;66.73;99686.56;107463;1262;123941;-81
2023/02/18 03:02:46;;;;;;;;;;;;;;;6.63;66.50;99673.45;107329;1271;61221;-81
2023/02/18 03:05:30;;;;;;;;;;;;;;;6.61;66.49;99672.55;107261;1256;123942;-80
2023/02/18 03:07:57;;;;;;;;;;;;;;;6.60;66.44;99680.89;107801;1261;75078;-81
2023/02/18 03:10:43;;;;;;;;;;;;;;;6.60;66.30;99683.67;107804;1257;124307;-81
2023/02/18 03:13:37;;;;;;;;;;;;;;;6.58;66.41;99684.85;108822;1256;72281;-81
2023/02/18 03:16:09;;;;;;;;;;;;;;;6.55;66.42;99687.57;108607;1257;123744;-81
2023/02/18 03:18:38;;;;;;;;;;;;;;;6.53;66.25;99686.84;108939;1256;60156;-81
2023/02/18 03:21:09;;;;;;;;;;;;;;;6.52;66.08;99690.27;108722;1257;74474;-81
2023/02/18 03:23:39;;;;;;;;;;;;;;;6.48;66.22;99685.31;107326;1256;123960;-81
2023/02/18 03:26:07;;;;;;;;;;;;;;;6.46;66.15;99699.20;107461;1260;70160;-81
2023/02/18 03:28:34;;;;;;;;;;;;;;;6.46;66.06;99699.71;107562;1257;123796;-82
2023/02/18 03:31:02;;;;;;;;;;;;;;;6.45;66.12;99698.48;107597;1257;61258;-81
2023/02/18 03:33:30;;;;;;;;;;;;;;;6.42;65.87;99726.65;107244;1256;74711;-81
2023/02/18 03:36:04;;;;;;;;;;;;;;;6.40;65.86;99709.34;107261;1257;124530;-81
2023/02/18 03:38:34;;;;;;;;;;;;;;;6.36;66.00;99711.50;107318;1257;71414;-83
2023/02/18 03:41:01;;;;;;;;;;;;;;;6.33;66.15;99714.20;107307;1256;123680;-82
2023/02/18 03:43:28;;;;;;;;;;;;;;;6.31;66.05;99722.34;107535;1257;60673;-83
2023/02/18 03:45:55;;;;;;;;;;;;;;;6.28;65.90;99724.20;107758;1257;73417;-82
2023/02/18 03:48:22;;;;;;;;;;;;;;;6.26;66.06;99727.27;107249;1257;123411;-81
2023/02/18 03:50:49;;;;;;;;;;;;;;;6.22;66.21;99723.16;107420;1256;72123;-81
2023/02/18 03:53:16;;;;;;;;;;;;;;;6.17;66.20;99714.87;107132;1258;123787;-81
2023/02/18 03:55:43;;;;;;;;;;;;;;;6.13;66.28;99733.73;107309;1257;61353;-81
2023/02/18 03:58:10;;;;;;;;;;;;;;;6.09;66.42;99727.36;107563;1258;124278;-82
2023/02/18 04:00:37;;;;;;;;;;;;;;;6.03;66.38;99734.88;107588;1257;65719;-81
2023/02/18 04:03:04;;;;;;;;;;;;;;;5.99;66.58;99729.88;107470;1258;71180;-81
2023/02/18 04:05:31;;;;;;;;;;;;;;;5.97;66.53;99737.33;107247;1257;123869;-81
2023/02/18 04:07:59;;;;;;;;;;;;;;;5.95;66.22;99743.85;107443;1257;60990;-82
2023/02/18 04:10:26;;;;;;;;;;;;;;;5.92;66.38;99745.15;107305;1263;124634;-81
2023/02/18 04:12:53;;;;;;;;;;;;;;;5.90;66.36;99738.98;107385;1257;66308;-81
2023/02/18 04:15:20;;;;;;;;;;;;;;;5.89;66.39;99752.20;107436;1257;72423;-82
2023/02/18 04:17:53;;;;;;;;;;;;;;;5.89;66.37;99754.98;107256;1257;123885;-82
2023/02/18 04:20:21;;;;;;;;;;;;;;;5.89;66.20;99764.41;107487;1258;61103;-82
2023/02/18 04:22:48;;;;;;;;;;;;;;;5.92;66.03;99758.22;107426;1257;123647;-81
2023/02/18 04:25:15;;;;;;;;;;;;;;;5.95;65.90;99761.95;107524;1257;67077;-82
2023/02/18 04:27:42;;;;;;;;;;;;;;;5.94;65.62;99753.73;107568;1260;71328;-82
2023/02/18 04:30:10;;;;;;;;;;;;;;;5.92;65.55;99760.48;107207;1257;123747;-81
2023/02/18 04:32:38;;;;;;;;;;;;;;;5.87;65.56;99762.43;107341;1257;61244;-83
2023/02/18 04:35:06;;;;;;;;;;;;;;;5.82;65.61;99767.15;107218;1258;123969;-82
2023/02/18 04:37:33;;;;;;;;;;;;;;;5.78;65.68;99756.06;107319;1257;67614;-82
2023/02/18 04:40:00;;;;;;;;;;;;;;;5.74;65.62;99756.83;107549;1257;124211;-81
2023/02/18 04:42:27;;;;;;;;;;;;;;;5.71;65.56;99761.99;107611;1262;61201;-82
2023/02/18 04:44:56;;;;;;;;;;;;;;;5.69;65.64;99753.21;107472;1257;61033;-82
2023/02/18 04:47:23;;;;;;;;;;;;;;;5.67;65.62;99772.64;107463;1257;123719;-82
2023/02/18 04:49:50;;;;;;;;;;;;;;;5.68;65.59;99765.19;107207;1257;64782;-82
2023/02/18 04:52:17;;;;;;;;;;;;;;;5.65;65.63;99771.56;107034;1261;123730;-82
2023/02/18 04:54:46;;;;;;;;;;;;;;;5.64;65.67;99778.49;107287;1257;61269;-82
2023/02/18 04:57:13;;;;;;;;;;;;;;;5.66;65.74;99785.49;107165;1256;61219;-82
2023/02/18 04:59:40;;;;;;;;;;;;;;;5.67;65.79;99795.79;107202;1258;124566;-82
2023/02/18 05:02:07;;;;;;;;;;;;;;;5.67;65.72;99789.17;107389;1257;67060;-82
2023/02/18 05:04:34;;;;;;;;;;;;;;;5.65;65.67;99792.98;107468;1257;123965;-82
2023/02/18 05:07:01;;;;;;;;;;;;;;;5.62;65.61;99794.61;107611;1257;59292;-83
2023/02/18 05:09:34;;;;;;;;;;;;;;;5.57;65.70;99801.08;107527;1257;61339;-82
2023/02/18 05:12:01;;;;;;;;;;;;;;;5.54;65.69;99812.30;107165;1257;123880;-82
2023/02/18 05:14:31;;;;;;;;;;;;;;;5.50;65.68;99815.66;107215;1258;65791;-83
2023/02/18 05:16:58;;;;;;;;;;;;;;;5.46;65.74;99814.99;107112;1260;123543;-82
2023/02/18 05:19:26;;;;;;;;;;;;;;;5.38;65.76;99816.52;107234;1257;61064;-82
2023/02/18 05:21:53;;;;;;;;;;;;;;;5.32;65.89;99814.42;107420;1257;61234;-82
2023/02/18 05:24:21;;;;;;;;;;;;;;;5.26;65.92;99815.46;107435;1257;124049;-82
2023/02/18 05:26:48;;;;;;;;;;;;;;;5.21;65.98;99829.04;107688;1257;65795;-82
2023/02/18 05:29:15;;;;;;;;;;;;;;;5.18;65.96;99830.00;107750;1257;123789;-82
2023/02/18 05:31:42;;;;;;;;;;;;;;;5.16;66.13;99843.83;107368;1257;61323;-83
2023/02/18 05:34:09;;;;;;;;;;;;;;;5.12;66.16;99845.10;107172;1257;123732;-83
2023/02/18 05:36:36;;;;;;;;;;;;;;;5.09;66.23;99845.85;107261;1257;73081;-84
2023/02/18 05:39:03;;;;;;;;;;;;;;;5.06;66.27;99856.22;107250;1257;65388;-84
2023/02/18 05:41:30;;;;;;;;;;;;;;;5.04;66.34;99854.91;107194;1257;123854;-84
2023/02/18 05:46:45;;;;;;;;;;;;;;;5.00;66.53;99858.27;107177;1257;124349;-82
2023/02/18 05:49:19;;;;;;;;;;;;;;;4.97;66.53;99868.44;107001;1257;74459;-86
2023/02/18 05:51:46;;;;;;;;;;;;;;;4.96;66.49;99872.21;107035;1260;65892;-85
2023/02/18 05:54:13;;;;;;;;;;;;;;;4.96;66.53;99864.05;106948;1257;123637;-84
2023/02/18 05:56:48;;;;;;;;;;;;;;;4.95;66.66;99872.01;107119;1257;61347;-83
2023/02/18 05:59:15;;;;;;;;;;;;;;;4.92;66.73;99872.41;107174;1257;124663;-84
2023/02/18 06:01:42;;;;;;;;;;;;;;;4.90;66.71;99877.38;107264;1257;73375;-83
2023/02/18 06:04:09;;;;;;;;;;;;;;;4.89;66.76;99879.98;107390;1256;123729;-80
2023/02/18 06:06:36;;;;;;;;;;;;;;;4.86;66.73;99894.13;107240;1257;73335;-85
2023/02/18 06:09:03;;;;;;;;;;;;;;;4.85;66.73;99894.11;107302;1257;61067;-86
2023/02/18 06:11:44;;;;;;;;;;;;;;;4.83;66.81;99911.27;107164;1257;124113;-86
2023/02/18 06:14:11;;;;;;;;;;;;;;;4.81;66.79;99902.85;107317;1257;74696;-84
2023/02/18 06:16:46;;;;;;;;;;;;;;;4.80;66.91;99904.54;107200;1257;124962;-84
2023/02/18 06:19:13;;;;;;;;;;;;;;;4.80;66.96;99902.44;107163;1262;72722;-87
2023/02/18 06:21:43;;;;;;;;;;;;;;;4.80;66.97;99916.17;107551;1257;61050;-85
2023/02/18 06:24:10;;;;;;;;;;;;;;;4.83;66.99;99913.84;107477;1256;124042;-85
2023/02/18 06:26:39;;;;;;;;;;;;;;;4.85;66.97;99917.92;107240;1256;72509;-89
2023/02/18 06:29:06;;;;;;;;;;;;;;;4.86;67.09;99916.74;107030;1256;123770;-86
2023/02/18 06:31:33;;;;;;;;;;;;;;;4.86;67.11;99932.75;107322;1257;72718;-81
2023/02/18 06:34:01;;;;;;;;;;;;;;;4.89;67.03;99933.70;107248;1256;124188;-81
2023/02/18 06:36:28;;;;;;;;;;;;;;;4.94;67.06;99940.45;107410;1259;61251;-81
2023/02/18 06:38:58;;;;;;;;;;;;;;;4.96;67.00;99941.23;107638;1260;74420;-83
2023/02/18 06:41:26;;;;;;;;;;;;;;;4.98;67.03;99953.13;107483;1256;123703;-83
2023/02/18 06:43:53;;;;;;;;;;;;;;;5.00;66.99;99947.83;107346;1257;72705;-84
2023/02/18 06:46:20;;;;;;;;;;;;;;;5.03;67.06;99944.45;107323;1259;124725;-84
2023/02/18 06:48:47;;;;;;;;;;;;;;;5.06;67.04;99951.84;106948;1257;61250;-84
2023/02/18 06:51:15;;;;;;;;;;;;;;;5.08;67.07;99948.27;107140;1257;76690;-84
2023/02/18 06:53:43;;;;;;;;;;;;;;;5.11;67.06;99955.67;107266;1258;124195;-86
2023/02/18 06:56:10;;;;;;;;;;;;;;;5.16;67.04;99940.88;107227;1257;71391;-84
2023/02/18 06:58:37;;;;;;;;;;;;;;;5.18;66.96;99949.48;107095;1257;123831;-82
2023/02/18 07:01:04;;;;;;;;;;;;;;;5.19;66.85;99953.16;107114;1257;61270;-88
2023/02/18 07:03:40;;;;;;;;;;;;;;;5.20;66.88;99959.27;107030;1257;73847;-84
2023/02/18 07:06:13;;;;;;;;;;;;;;;5.26;66.98;99958.95;106980;1256;123586;-84
2023/02/18 07:08:40;;;;;;;;;;;;;;;5.32;66.92;99962.29;107302;1256;71957;-84
2023/02/18 07:11:14;;;;;;;;;;;;;;;5.36;66.91;99957.88;107476;1257;123593;-82
2023/02/18 07:13:41;;;;;;;;;;;;;;;5.38;66.73;99962.30;107392;1257;61286;-81
2023/02/18 07:16:08;;;;;;;;;;;;;;;5.40;66.65;99966.19;107371;1257;123771;-82
2023/02/18 07:18:35;;;;;;;;;;;;;;;5.40;66.61;99972.29;107430;1257;67525;-82
2023/02/18 07:21:03;;;;;;;;;;;;;;;5.41;66.57;99970.39;107682;1257;72722;-81
2023/02/18 07:23:30;;;;;;;;;;;;;;;5.42;66.53;99968.38;107201;1257;123792;-82
2023/02/18 07:26:07;;;;;;;;;;;;;;;5.42;66.47;99970.44;107202;1256;60032;-82
2023/02/18 07:28:37;;;;;;;;;;;;;;;5.44;66.26;99962.34;107190;1256;123790;-83
2023/02/18 07:31:11;;;;;;;;;;;;;;;5.46;66.27;99977.00;107365;1256;66110;-81
2023/02/18 07:33:38;;;;;;;;;;;;;;;5.46;66.13;99990.75;107326;1256;72783;-82
2023/02/18 07:36:05;;;;;;;;;;;;;;;5.48;66.12;99970.45;107213;1257;123842;-82
2023/02/18 07:38:32;;;;;;;;;;;;;;;5.49;66.00;99978.00;107064;1257;59975;-82
2023/02/18 07:41:05;;;;;;;;;;;;;;;5.51;65.91;99993.55;107137;1257;123969;-83
2023/02/18 07:43:39;;;;;;;;;;;;;;;5.51;65.93;99979.61;107297;1256;67109;-83
2023/02/18 07:46:09;;;;;;;;;;;;;;;5.53;65.85;99995.15;107351;1257;124219;-82
2023/02/18 07:48:36;;;;;;;;;;;;;;;5.52;65.87;99993.77;107666;1257;61351;-84
2023/02/18 07:51:07;;;;;;;;;;;;;;;5.57;65.74;99995.11;107550;1257;61258;-85
2023/02/18 07:53:34;;;;;;;;;;;;;;;5.58;65.68;99988.73;107459;1257;123610;-85
2023/02/18 07:56:10;;;;;;;;;;;;;;;5.59;65.60;99997.29;107442;1257;66247;-84
2023/02/18 07:58:38;;;;;;;;;;;;;;;5.61;65.54;100005.52;107479;1257;71803;-85
2023/02/18 08:01:05;;;;;;;;;;;;;;;5.62;65.44;100003.29;107406;1256;59334;-87
2023/02/18 08:03:33;;;;;;;;;;;;;;;5.63;65.33;100008.70;107351;1261;60380;-85
2023/02/18 08:06:01;;;;;;;;;;;;;;;5.64;65.40;100007.35;107314;1257;124345;-81
2023/02/18 08:08:30;;;;;;;;;;;;;;;5.68;65.32;100010.45;107608;1257;64629;-84
2023/02/18 08:11:00;;;;;;;;;;;;;;;5.72;65.35;100013.71;107554;1256;124561;-82
2023/02/18 08:13:28;;;;;;;;;;;;;;;5.78;65.32;100015.11;107367;1257;59690;-82
2023/02/18 08:15:55;;;;;;;;;;;;;;;5.83;65.43;100014.92;107090;1257;60135;-85
2023/02/18 08:18:24;;;;;;;;;;;;;;;5.90;65.49;100022.27;107266;1256;123701;-84
2023/02/18 08:20:57;;;;;;;;;;;;;;;5.95;65.36;100017.98;107212;1256;67079;-85
2023/02/18 08:23:38;;;;;;;;;;;;;;;6.01;65.20;100025.33;107190;1256;123823;-83
2023/02/18 08:26:24;;;;;;;;;;;;;;;6.04;64.97;100033.07;107182;1257;61285;-85
2023/02/18 08:28:59;;;;;;;;;;;;;;;6.11;64.93;100032.39;107195;1257;124224;-84
2023/02/18 08:31:27;;;;;;;;;;;;;;;6.16;64.70;100032.92;107548;1257;73372;-84
2023/02/18 08:33:55;;;;;;;;;;;;;;;6.20;64.77;100045.75;107710;1259;66917;-81
2023/02/18 08:36:22;;;;;;;;;;;;;;;6.25;64.80;100046.59;107637;1257;124538;-82
2023/02/18 08:38:49;;;;;;;;;;;;;;;6.31;64.76;100042.08;107567;1257;59786;-81
2023/02/18 08:41:17;;;;;;;;;;;;;;;6.39;64.85;100052.25;107633;1257;123741;-81
2023/02/18 08:43:44;;;;;;;;;;;;;;;6.47;64.75;100049.70;107733;1257;73114;-80
2023/02/18 08:46:11;;;;;;;;;;;;;;;6.54;64.70;100050.29;107638;1257;123938;-81
2023/02/18 08:48:38;;;;;;;;;;;;;;;6.61;64.61;100053.96;108544;1257;71784;-82
2023/02/18 08:51:25;;;;;;;;;;;;;;;6.65;64.57;100058.62;107697;1257;59495;-82
2023/02/18 08:53:52;;;;;;;;;;;;;;;6.68;64.26;100062.20;108856;1256;123943;-81
2023/02/18 08:56:22;;;;;;;;;;;;;;;6.69;64.09;100053.69;108833;1257;73919;-83
2023/02/18 08:58:49;;;;;;;;;;;;;;;6.72;64.12;100052.89;108923;1257;123894;-80
2023/02/18 09:01:16;;;;;;;;;;;;;;;6.79;64.09;100064.10;108762;1257;71244;-81
2023/02/18 09:03:43;;;;;;;;;;;;;;;6.83;63.69;100064.89;108904;1257;59044;-81
2023/02/18 09:06:10;;;;;;;;;;;;;;;6.87;63.66;100073.72;108662;1255;124446;-81
2023/02/18 09:08:38;;;;;;;;;;;;;;;6.90;63.50;100077.48;108859;1256;73110;-81
2023/02/18 09:11:05;;;;;;;;;;;;;;;6.89;63.34;100072.91;108811;1257;123814;-81
2023/02/18 09:13:32;;;;;;;;;;;;;;;6.90;63.55;100081.83;108922;1257;72710;-81
2023/02/18 09:15:59;;;;;;;;;;;;;;;6.92;63.28;100082.25;108717;1257;285732;-81
2023/02/18 09:18:26;;;;;;;;;;;;;;;6.93;63.21;100085.08;108839;1257;123892;-81
2023/02/18 09:20:58;;;;;;;;;;;;;;;6.98;63.25;100089.56;108871;1256;74482;-81
2023/02/18 09:23:27;;;;;;;;;;;;;;;7.04;63.26;100087.83;107750;1256;123980;-90
2023/02/18 09:25:53;;;;;;;;;;;;;;;7.12;63.06;100098.52;107060;1259;71113;-89
2023/02/18 09:28:22;;;;;;;;;;;;;;;7.17;62.99;100094.13;107285;1257;123873;-88
2023/02/18 09:30:49;;;;;;;;;;;;;;;7.22;62.98;100102.48;107308;1258;60769;-86
2023/02/18 09:33:16;;;;;;;;;;;;;;;7.26;62.68;100100.48;107469;1259;74776;-88
2023/02/18 09:35:43;;;;;;;;;;;;;;;7.21;62.37;100117.29;107670;1258;123858;-87
2023/02/18 09:38:15;;;;;;;;;;;;;;;7.17;62.35;100117.16;108834;1257;72545;-85
2023/02/18 09:40:46;;;;;;;;;;;;;;;7.12;62.08;100124.00;108124;1257;124266;-85
2023/02/18 09:43:35;;;;;;;;;;;;;;;7.07;62.05;100125.77;107320;1256;61219;-85
2023/02/18 09:46:04;;;;;;;;;;;;;;;7.07;62.06;100124.55;107352;1256;73352;-83
2023/02/18 09:48:32;;;;;;;;;;;;;;;7.09;62.06;100123.89;107172;1257;124424;-84
2023/02/18 09:51:02;;;;;;;;;;;;;;;7.09;62.13;100130.00;107215;1256;72660;-89
2023/02/18 09:53:29;;;;;;;;;;;;;;;7.08;62.19;100126.49;106989;1256;123706;-85
2023/02/18 09:56:02;;;;;;;;;;;;;;;7.07;62.27;100132.91;107391;1257;61295;-86
2023/02/18 09:58:37;;;;;;;;;;;;;;;7.06;62.21;100137.41;107100;1261;123903;-89
2023/02/18 10:01:28;;;;;;;;;;;;;;;7.13;62.35;100139.90;107353;1256;64801;-88
2023/02/18 10:03:58;;;;;;;;;;;;;;;7.33;62.28;100135.06;107042;1257;72782;-90
2023/02/18 10:06:32;;;;;;;;;;;;;;;7.52;62.44;100136.48;107034;1256;124459;-90
2023/02/18 10:09:04;;;;;;;;;;;;;;;7.69;62.12;100140.23;107034;1257;61135;-89
2023/02/18 10:11:50;;;;;;;;;;;;;;;7.82;61.84;100147.92;107317;1258;124387;-89
2023/02/18 10:14:20;;;;;;;;;;;;;;;7.90;61.50;100138.33;107243;1257;65959;-84
2023/02/18 10:16:47;;;;;;;;;;;;;;;7.99;61.33;100139.27;107247;1257;124155;-83
2023/02/18 10:19:20;;;;;;;;;;;;;;;7.97;61.08;100143.07;107246;1257;61273;-87
2023/02/18 10:21:47;;;;;;;;;;;;;;;7.86;60.60;100145.03;107058;1257;61197;-89
2023/02/18 10:24:31;;;;;;;;;;;;;;;7.75;60.75;100139.70;106933;1257;124504;-85
2023/02/18 10:26:58;;;;;;;;;;;;;;;7.72;60.77;100140.48;107180;1258;65863;-83
2023/02/18 10:29:25;;;;;;;;;;;;;;;7.81;61.09;100138.61;107071;1257;123954;-86
2023/02/18 10:31:56;;;;;;;;;;;;;;;7.95;61.19;100150.54;107126;1258;61367;-85
2023/02/18 10:34:28;;;;;;;;;;;;;;;8.01;60.87;100141.92;107092;1257;124207;-83
2023/02/18 10:37:14;;;;;;;;;;;;;;;8.08;61.01;100146.66;107550;1257;75601;-85
2023/02/18 10:39:51;;;;;;;;;;;;;;;8.14;60.60;100140.86;107644;1257;65842;-86
2023/02/18 10:45:38;;;;;;;;;;;;;;;8.11;60.65;100136.95;107627;1256;61128;-85
2023/02/18 10:48:25;;;;;;;;;;;;;;;8.17;60.72;100137.27;107561;1257;123859;-85
2023/02/18 10:50:53;;;;;;;;;;;;;;;8.26;60.33;100138.04;107714;1257;73207;-82
2023/02/18 10:53:26;;;;;;;;;;;;;;;8.34;60.23;100138.58;107402;1257;123821;-83
2023/02/18 10:55:55;;;;;;;;;;;;;;;8.51;60.24;100131.30;107482;1257;71478;-83
2023/02/18 10:58:47;;;;;;;;;;;;;;;8.59;59.72;100130.43;107002;1257;124689;-84
2023/02/18 11:01:15;;;;;;;;;;;;;;;8.64;59.71;100129.84;107241;1257;60062;-82
2023/02/18 11:03:43;;;;;;;;;;;;;;;8.76;59.69;100124.35;107532;1257;72866;-84
2023/02/18 11:06:31;;;;;;;;;;;;;;;8.78;59.27;100128.93;107753;1262;124033;-81
2023/02/18 11:09:03;;;;;;;;;;;;;;;8.76;59.11;100126.27;107655;1257;73239;-82
2023/02/18 11:11:46;;;;;;;;;;;;;;;8.79;59.09;100127.73;107435;1261;124015;-86
2023/02/18 11:14:14;;;;;;;;;;;;;;;8.78;58.91;100130.32;107503;1257;59746;-87
2023/02/18 11:17:08;;;;;;;;;;;;;;;8.83;59.22;100132.38;107919;1257;124584;-87
2023/02/18 11:20:20;;;;;;;;;;;;;;;8.91;58.66;100144.10;107055;1257;66661;-88
2023/02/18 11:22:48;;;;;;;;;;;;;;;8.80;58.54;100155.21;106987;1259;124225;-85
2023/02/18 11:25:23;;;;;;;;;;;;;;;8.75;58.45;100151.29;107036;1257;61382;-87
2023/02/18 11:27:51;;;;;;;;;;;;;;;8.74;58.55;100148.43;107191;1262;61205;-87
2023/02/18 11:30:36;;;;;;;;;;;;;;;8.72;58.49;100144.37;107191;1258;124174;-85
2023/02/18 11:33:39;;;;;;;;;;;;;;;8.75;58.73;100145.49;107384;1257;66776;-85
2023/02/18 11:36:16;;;;;;;;;;;;;;;8.79;58.39;100155.36;106727;1262;124391;-87
2023/02/18 11:38:54;;;;;;;;;;;;;;;8.68;58.47;100145.52;107127;1260;61168;-86
2023/02/18 11:41:40;;;;;;;;;;;;;;;8.73;58.54;100145.96;107053;1257;124033;-86
2023/02/18 11:44:26;;;;;;;;;;;;;;;8.80;58.63;100152.42;107334;1257;73159;-87
2023/02/18 11:47:15;;;;;;;;;;;;;;;8.80;58.25;100136.50;107219;1257;124644;-85
2023/02/18 11:50:01;;;;;;;;;;;;;;;8.79;57.99;100147.49;107037;1257;73124;-87
2023/02/18 11:52:37;;;;;;;;;;;;;;;8.77;58.06;100135.58;107055;1262;125180;-86
2023/02/18 11:55:12;;;;;;;;;;;;;;;8.78;57.81;100135.05;107356;1257;60900;-86
2023/02/18 11:57:59;;;;;;;;;;;;;;;8.76;57.80;100133.80;107206;1257;74949;-86
2023/02/18 12:00:38;;;;;;;;;;;;;;;8.75;57.87;100135.34;107079;1257;124148;-84
2023/02/18 12:03:28;;;;;;;;;;;;;;;8.75;57.87;100131.14;107228;1257;72791;-85
2023/02/18 12:06:18;;;;;;;;;;;;;;;8.81;57.89;100135.64;106982;1257;122904;-90
2023/02/18 12:09:18;;;;;;;;;;;;;;;8.84;57.78;100133.95;107134;1257;61139;-88
2023/02/18 12:11:53;;;;;;;;;;;;;;;8.90;57.72;100131.81;106996;1262;123984;-89
2023/02/18 12:14:26;;;;;;;;;;;;;;;8.92;57.65;100137.64;107003;1257;67193;-90
2023/02/18 12:17:36;;;;;;;;;;;;;;;8.92;57.57;100135.21;107047;1258;124136;-90
2023/02/18 12:20:42;;;;;;;;;;;;;;;8.82;57.45;100133.23;107122;1257;61059;-91
2023/02/18 12:23:38;;;;;;;;;;;;;;;8.75;57.50;100142.88;107077;1258;124004;-89
2023/02/18 12:26:21;;;;;;;;;;;;;;;8.70;57.37;100139.77;107158;1256;74681;-88
2023/02/18 12:29:07;;;;;;;;;;;;;;;8.65;57.54;100137.95;106911;1257;124846;-88
2023/02/18 12:35:18;;;;;;;;;;;;;;;8.68;57.63;100142.17;106823;1257;124304;-90
2023/02/18 12:37:57;;;;;;;;;;;;;;;8.69;57.62;100142.39;106946;1257;59214;-91
2023/02/18 12:44:17;;;;;;;;;;;;;;;8.64;57.44;100137.72;107065;1257;65817;-89
2023/02/18 12:47:06;;;;;;;;;;;;;;;8.58;57.52;100144.75;107087;1260;124132;-86
2023/02/18 12:50:05;;;;;;;;;;;;;;;8.51;57.34;100145.13;107174;1257;61306;-88
2023/02/18 12:52:35;;;;;;;;;;;;;;;8.49;57.44;100143.32;106815;1257;124194;-90
2023/02/18 12:55:24;;;;;;;;;;;;;;;8.46;57.39;100137.81;107009;1257;75058;-84
2023/02/18 12:58:08;;;;;;;;;;;;;;;8.46;57.55;100144.81;107154;1257;66769;-85
2023/02/18 13:00:46;;;;;;;;;;;;;;;8.46;57.61;100140.80;106983;1257;124386;-84
2023/02/18 13:03:40;;;;;;;;;;;;;;;8.47;57.85;100141.16;107189;1257;61267;-84
2023/02/18 13:06:09;;;;;;;;;;;;;;;8.51;57.79;100138.30;107599;1257;125122;-84
2023/02/18 13:08:36;;;;;;;;;;;;;;;8.46;57.50;100141.85;107491;1257;72309;-85
2023/02/18 13:11:23;;;;;;;;;;;;;;;8.42;57.70;100140.34;107090;1260;124063;-85
2023/02/18 13:13:57;;;;;;;;;;;;;;;8.41;57.77;100134.73;106938;1257;73179;-85
2023/02/18 13:16:24;;;;;;;;;;;;;;;8.36;57.64;100143.14;107300;1257;61196;-84